Nearby METARS Reports

 

LFML - Marseille/Marign, France
Distance from station: O 47km
Mise à jour: 22/06/2018 03:00
clair
clair
 Wind from NNO
Vent: NNO 30 km/h
Température: 25°C
Point de rosée: 17°C
Humidité: 61%
Baromètre: 1013 hPa
Résumé: clair
Visibility: greater than 10 km
2018/06/22 01:00 LFML 220100Z AUTO 34016KT CAVOK 25/17 Q1013 BECMG 30017G27KT
LFMC - Le Luc/Le Cannet, France
Distance from station: ESE 48km
Mise à jour: 22/06/2018 03:00

 Wind from S
Vent: S 7 km/h
Température: 24°C
Point de rosée: 17°C
Humidité: 65%
Baromètre: 1012 hPa
Visibility: 10 km
2018/06/22 01:00 LFMC 220100Z AUTO 18004KT 120V240 9999 ////// 24/17 Q1012
LFTH - Hyeres/Le Palyve, France
Distance from station: SSE 53km
Mise à jour: 22/06/2018 03:00
clair
clair
 Wind from ENE
Vent: ENE 6 km/h
Température: 21°C
Point de rosée: 18°C
Humidité: 83%
Baromètre: 1011 hPa
Résumé: clair
Visibility: greater than 10 km
2018/06/22 01:00 LFTH 220100Z AUTO 07003KT CAVOK 21/18 Q1011 NOSIG